Bloomington Heights, Illinois
Current Conditions -  °F | °C
As of 12:56 AM on Friday 28 Nov 2014 (Local Time) from KBMI Reporting Station
Clear Clear  
Wind Chill:   Ceiling: Unl
Heat Index: 15°   Visibility: 10mi
Dew Point: 12°   Wind: 7mph
Humidity: 88%   Direction: 240°WSW
Pressure: 30.39"   Gusts: NA
Location:  40.4766°N, 88.992°W
Report Text: KBMI 280656Z AUTO 24006KT 10SM CLR M09/M11 A3039 RMK AO2 T10941111 SLP317
Loading
Personal Weather Stations






























Interactive Weather Map New forecast layout! Learn more

10-Day Weather Forecast

Advertisements
Track Severe Weather on mobile